Lukas Koch

Olheiro - Köln
13 Nov 2027
Sábado
Processo

Personalidade

Adaptabilidade (19) Ambição (10) Controvérsia (7) Lealdade (1) Pressão (17) Profissionalismo (6) Espírito Esportivo (16) Temperamento (12)

Perfil

Estilo de Treinamento Democrático
Licença Nacional A
Determinação 9
Gestão de Pessoas 5
Motivação 14
Disciplina 6
Satisfação no Trabalho
100%
Fadiga
0%
Função Olheiro
Salário 108.7K p/s
Contrato 14.03.2028

Desempenho

Comportamento Bom
Eficácia do Treinamento
50%
Desenvolvimento do Jogador
40%
Prevenção de Lesões
45%
Implementação Tática
40%

Eventos Recentes

Participou de uma reunião de recrutamento agora
Participou de uma reunião de recrutamento 7d atrás
Recomendou um alvo de transferência 7d atrás
Participou de uma reunião de recrutamento 14d atrás
Recomendou um alvo de transferência 14d atrás
Participou de uma reunião de recrutamento 21d atrás
Recomendou um alvo de transferência 21d atrás
Recomendou um alvo de transferência 28d atrás

Monitorando agora

95
Jogador Clube Status Habilidade Confiança Observado Última observação Último voto
Ludovit Reis Werder Bremen Ativo 142 / 138 51% 1 05.07.2027 -
Umeh Emmanuel Fatih Karagumruk Negociando 113 / 119 40% 7 28.06.2027 -
Fabrizio Cavegn Bristol Rovers Ativo 102 / 115 40% 2 28.06.2027 -
Mihailo Ivanović Millwall Ativo 116 / 123 40% 4 22.06.2027 -
Derry Scherhant SC Freiburg Ativo 119 / 132 40% 3 22.06.2027 -
Mohamed-Ali Cho Hull City Ativo 132 / 143 40% 2 14.06.2027 -
García Pascual Cádiz Perdido 133 / 117 40% 2 14.06.2027 -
Reiss Nelson VfL Wolfsburg Perdido 158 / 139 51% 1 02.06.2027 -
Roberto Alvarado Porto Negociando 139 / 139 66% 1 01.06.2027 Aprovar
Gonzalo Fulham Ativo 142 / 144 40% 2 31.05.2027 -
Malik Mothersille Stockport County Ativo 105 / 118 40% 1 31.05.2027 -
Jorge Pascual Granada Ativo 130 / 141 40% 4 30.05.2027 -
Miguel Rodríguez Alavés Ativo 136 / 134 40% 6 29.05.2027 -
Giorgi Kvernadze Frosinone Ativo 137 / 130 40% 2 29.05.2027 -
Tommy Conway Middlesbrough Ativo 136 / 129 40% 3 28.05.2027 -
Adrián Niño Málaga Ativo 130 / 121 40% 2 28.05.2027 -
Dale Taylor Blackpool Ativo 111 / 119 40% 2 25.05.2027 -
Matthis Abline Monaco Ativo 142 / 142 40% 1 23.05.2027 -
Josh Coburn Millwall Ativo 120 / 121 40% 2 20.05.2027 -
Roberto Fernández Braga Ativo 150 / 138 40% 2 17.05.2027 -
Liam Delap Nottingham Forest Ativo 141 / 148 40% 8 15.05.2027 -
Kelly Saravanan Salford City Ativo 107 / 118 40% 3 13.05.2027 -
Mathys Tel Stade Rennais Ativo 135 / 150 40% 2 10.05.2027 -
Tyreece Campbell Charlton Athletic Ativo 106 / 115 40% 1 10.05.2027 -
Aidomo Emakhu Oxford United Ativo 115 / 125 40% 2 09.05.2027 -
Jorge Delgado Cultural Leonesa Ativo 99 / 112 40% 1 09.05.2027 -
Pablo Felipe West Ham United Ativo 138 / 136 40% 3 07.05.2027 -
Ansu Fati Monaco Ativo 139 / 139 40% 3 04.05.2027 -
Santiago Castro AS Roma Ativo 140 / 152 40% 3 02.05.2027 -
Bradley Fink Wycombe Wanderers Ativo 109 / 109 40% 4 01.05.2027 -
Lamine Cissé Peterborough United Ativo 133 / 117 40% 3 29.04.2027 -
Mexx Meerdink Feyenoord Ativo 139 / 126 40% 2 28.04.2027 -
Joe Gelhardt Hull City Ativo 127 / 129 40% 1 27.04.2027 -
Christantus Uche Getafe Ativo 128 / 147 40% 1 24.04.2027 -
Bertuğ Yıldırım Basaksehir Ativo 119 / 112 40% 3 21.04.2027 -
Oscar Gloukh Ajax Ativo 139 / 130 40% 2 21.04.2027 -
Abu Kamara Portsmouth Ativo 106 / 115 40% 1 15.04.2027 -
Chupete Málaga Ativo 135 / 127 40% 2 10.04.2027 -
Fisnik Asllani TSG Hoffenheim Ativo 145 / 138 40% 1 30.03.2027 -
Diego López Valencia Ativo 146 / 139 40% 1 28.03.2027 -
Karl Etta Eyong Levante Ativo 133 / 150 40% 1 25.03.2027 -
Samu Aghehowa Girona Ativo 151 / 158 40% 1 24.03.2027 -
Fábio Silva Borussia Dortmund Ativo 128 / 145 40% 2 13.01.2027 -
Tim Lemperle TSG Hoffenheim Ativo 140 / 136 40% 1 13.01.2027 -
Karim Adeyemi Barcelona Ativo 164 / 148 40% 4 01.01.2027 -
Enzo Loiodice KAA Gent Ativo 137 / 124 40% 1 01.01.2027 -
Didier Robert FC Augsburg Ativo 167 / 159 40% 3 31.12.2026 -
Julio Enciso Ipswich Town Ativo 141 / 143 40% 1 30.12.2026 -
Ibrahim Salah Basel Ativo 124 / 120 40% 4 29.12.2026 -
Claudy M'Buyi Rapid Wien Ativo 109 / 123 40% 5 25.12.2026 -
Mohammed Kudus Tottenham Ativo 163 / 151 40% 2 25.12.2026 -
Mikel Jauregizar Athletic Bilbao Ativo 165 / 153 40% 1 23.12.2026 -
Oihan Sancet Eintracht Frankfurt Ativo 152 / 154 40% 2 22.12.2026 -
Christoph Baumgartner RB Leipzig Ativo 160 / 152 40% 1 22.12.2026 -
Jordan Beyer Burnley Ativo 125 / 133 40% 1 20.12.2026 -
Yeremay Deportivo La Coruña Ativo 136 / 137 40% 1 20.12.2026 -
Dango Ouattara Brentford Ativo 156 / 151 40% 1 19.12.2026 -
Juan-José Perea Zurich Ativo 112 / 116 40% 7 18.12.2026 -
Camilo Durán Bloemfontein Celtic Perdido 143 / 119 40% 1 18.12.2026 -
Thulani Billiat Utrecht Ativo 136 / 138 40% 2 17.12.2026 -
Maximilian Beier Borussia Dortmund Perdido 156 / 148 40% 4 15.12.2026 -
Hugo Duro Valencia Ativo 130 / 146 40% 1 15.12.2026 -
Felix Nmecha Borussia Dortmund Ativo 162 / 166 40% 1 14.12.2026 -
Gaspar Gijón Ativo 135 / 134 40% 1 14.12.2026 -
Kevin Schade Brentford Ativo 153 / 144 40% 2 12.12.2026 -
Isaac Romero Sevilla Ativo 141 / 141 40% 1 12.12.2026 -
Marlon Mustapha Altach Ativo 118 / 110 40% 4 10.12.2026 -
Antonio Verinac St. Gallen Ativo 95 / 103 40% 3 08.12.2026 -
Darian Maleš Young Boys Ativo 109 / 124 40% 2 07.12.2026 -
Rumarn Burrell Queens Park Rangers Ativo 124 / 127 40% 1 01.12.2026 -
Seedy Jatta Sturm Graz Ativo 125 / 120 40% 3 29.11.2026 -
Rafael Leão Galatasaray Ativo 180 / 151 40% 1 28.11.2026 -
Philippe Keny Zurich Ativo 124 / 125 40% 3 27.11.2026 -
Rômulo RB Leipzig Ativo 149 / 151 40% 1 25.11.2026 -
Igor Jesus Nottingham Forest Ativo 133 / 147 40% 1 23.11.2026 -
Pau Víctor Estrela da Amadora Ativo 138 / 139 40% 2 20.11.2026 -
Marin Benko Zadar Ativo 115 / 130 40% 1 17.11.2026 -
Brennan Johnson Everton Ativo 135 / 139 40% 1 16.11.2026 -
Ayo Akinola Vaduz Ativo 109 / 108 40% 2 11.11.2026 -
Žan Celar Basel Ativo 115 / 110 40% 1 09.11.2026 -
Sinan Karweina Luzern Ativo 101 / 104 40% 1 06.11.2026 -
David Nieland Chernomorets Ativo 87 / 90 40% 2 04.11.2026 -
Philipp Alaba Austria Wien Ativo 132 / 127 40% 1 26.10.2026 -
Lukas Nmecha Leeds United Ativo 134 / 138 40% 1 24.10.2026 -
Armindo Sieb OB Ativo 128 / 117 40% 1 23.10.2026 -
Matteo di Giusto Luzern Ativo 135 / 118 40% 2 05.10.2026 -
Yanis Guermouche Admira Wacker Ativo 91 / 91 40% 1 28.09.2026 -
Sekou Diawara Zurich Ativo 82 / 89 40% 1 26.09.2026 -
Karim Konaté Red Bull Salzburg Ativo 128 / 144 40% 1 22.09.2026 -
Julián Álvarez Atlético Madrid Ativo 175 / 171 40% 1 22.09.2026 -
Marc Gutbub Thun Ativo 104 / 96 40% 1 17.09.2026 -
Dejan Joveljić Seattle Sounders Ativo 147 / 119 40% 1 13.09.2026 -
Flavien-Enzo Boyomo Osasuna Ativo 159 / 154 40% 1 21.08.2026 -
Lee Tae-Suk Austria Wien Ativo 111 / 125 40% 1 21.08.2026 -
Ousmane Dembélé Paris Saint-Germain Ativo 186 / 188 40% 1 01.08.2026 -